createdAt,value
2022-10-06T05:22:09.768Z,14.51
2022-10-06T05:27:30.972Z,14.47
2022-10-06T05:32:52.182Z,14.45
2022-10-06T05:38:13.329Z,14.43
2022-10-06T05:43:39.046Z,14.41
2022-10-06T05:49:04.678Z,14.37
2022-10-06T05:54:27.158Z,14.36
2022-10-06T05:59:48.018Z,14.44
2022-10-06T06:05:09.240Z,14.49
2022-10-06T06:10:29.915Z,14.52
2022-10-06T06:16:04.584Z,14.53
2022-10-06T06:21:29.140Z,14.64
2022-10-06T06:26:50.366Z,14.80
2022-10-06T06:32:11.136Z,15.04
2022-10-06T06:37:32.183Z,15.08
2022-10-06T06:42:54.922Z,15.15
2022-10-06T06:48:16.922Z,15.13
2022-10-06T06:53:41.601Z,15.29
2022-10-06T06:59:10.820Z,15.46
2022-10-06T07:04:37.274Z,15.63
2022-10-06T07:10:00.006Z,15.86
2022-10-06T07:15:39.338Z,16.01
2022-10-06T07:21:18.689Z,16.24
2022-10-06T07:26:39.867Z,16.52
2022-10-06T07:32:00.838Z,16.72
2022-10-06T07:37:21.612Z,16.99
2022-10-06T07:42:48.886Z,17.27
2022-10-06T07:48:19.886Z,17.61
2022-10-06T07:53:50.204Z,18.05
2022-10-06T07:59:20.503Z,17.82
2022-10-06T08:04:41.611Z,18.27
2022-10-06T08:10:02.876Z,18.95
2022-10-06T08:15:23.710Z,20.04
2022-10-06T08:20:47.794Z,20.56
2022-10-06T08:26:10.316Z,20.00
2022-10-06T08:31:32.048Z,21.23
2022-10-06T08:37:18.727Z,22.42
2022-10-06T08:42:48.541Z,24.56
2022-10-06T08:48:36.884Z,35.52
2022-10-06T08:54:24.758Z,30.09
2022-10-06T08:59:49.052Z,34.66
2022-10-06T09:05:16.058Z,30.12
2022-10-06T09:10:58.490Z,44.51
2022-10-06T09:16:30.798Z,47.43
2022-10-06T09:21:53.787Z,48.54
2022-10-06T09:27:23.135Z,41.60
2022-10-06T09:32:48.336Z,37.27
2022-10-06T09:38:11.591Z,36.03
2022-10-06T09:43:32.834Z,27.58
2022-10-06T09:49:26.862Z,25.45
2022-10-06T09:55:09.721Z,25.13
2022-10-06T10:00:35.861Z,24.04
2022-10-06T10:05:56.793Z,24.22
2022-10-06T10:11:42.094Z,23.38
2022-10-06T10:17:34.781Z,21.68
2022-10-06T10:22:58.555Z,22.50
2022-10-06T10:28:19.480Z,22.70
2022-10-06T10:34:24.047Z,21.84
2022-10-06T10:39:56.812Z,21.92
2022-10-06T10:45:32.296Z,22.73
2022-10-06T10:51:07.003Z,23.45
2022-10-06T10:56:31.606Z,24.73
2022-10-06T11:02:16.839Z,24.42
2022-10-06T11:07:53.394Z,24.57
2022-10-06T11:13:23.819Z,24.67
2022-10-06T11:19:22.654Z,23.68
2022-10-06T11:25:05.529Z,23.10
2022-10-06T11:30:26.913Z,23.62
2022-10-06T11:35:48.958Z,24.05
2022-10-06T11:41:34.882Z,23.95
2022-10-06T11:47:08.751Z,24.27
2022-10-06T11:52:29.460Z,23.99
2022-10-06T12:04:09.811Z,23.16
2022-10-06T12:09:40.819Z,23.13
2022-10-06T12:17:06.133Z,22.91
2022-10-06T12:21:24.756Z,22.73
2022-10-06T12:27:02.867Z,22.82
2022-10-06T12:32:54.995Z,22.79
2022-10-06T12:38:31.072Z,22.59
2022-10-06T12:43:54.969Z,22.93
2022-10-06T12:49:35.339Z,22.92
2022-10-06T12:54:59.851Z,22.54
2022-10-06T13:00:36.348Z,22.57
2022-10-06T13:06:03.693Z,22.86
2022-10-06T13:11:28.255Z,23.09
2022-10-06T13:16:49.105Z,23.02
2022-10-06T13:22:13.764Z,22.89
2022-10-06T13:27:34.758Z,23.08
2022-10-06T13:32:57.000Z,23.13
2022-10-06T13:38:18.553Z,23.24
2022-10-06T13:43:45.823Z,22.36
2022-10-06T13:49:24.737Z,22.08
2022-10-06T14:10:03.625Z,21.20
2022-10-06T14:15:27.266Z,20.65
2022-10-06T14:20:50.718Z,20.46
2022-10-06T14:26:13.478Z,20.08
2022-10-06T14:31:34.980Z,19.83
2022-10-06T14:36:57.237Z,19.76
2022-10-06T14:42:18.943Z,19.52
2022-10-06T14:47:39.969Z,19.24
2022-10-06T14:53:01.925Z,19.15
2022-10-06T14:58:22.987Z,19.13
2022-10-06T15:03:50.795Z,19.03
2022-10-06T15:09:12.528Z,18.97
2022-10-06T15:14:34.965Z,18.85
2022-10-06T15:19:56.455Z,18.66
2022-10-06T15:25:35.893Z,18.52
2022-10-06T15:30:57.303Z,18.34
2022-10-06T15:36:20.360Z,18.05
2022-10-06T15:41:42.878Z,17.93
2022-10-06T15:47:07.667Z,17.76
2022-10-06T15:52:32.531Z,17.54
2022-10-06T15:57:53.353Z,17.37
2022-10-06T16:03:27.115Z,17.26
2022-10-06T16:08:48.576Z,17.07
2022-10-06T16:14:09.854Z,16.89
2022-10-06T16:19:32.474Z,16.63
2022-10-06T16:24:53.133Z,16.33
2022-10-06T16:30:14.309Z,16.02
2022-10-06T16:35:34.843Z,15.76
2022-10-06T16:40:56.853Z,15.45
2022-10-06T16:46:21.655Z,15.18
2022-10-06T16:51:45.737Z,15.01
2022-10-06T16:57:07.396Z,14.81
2022-10-06T17:02:28.082Z,14.62
2022-10-06T17:07:48.774Z,14.45
2022-10-06T17:13:09.717Z,14.26
2022-10-06T17:18:30.459Z,14.05
2022-10-06T17:23:58.122Z,13.89
2022-10-06T17:29:21.716Z,13.75
2022-10-06T17:34:42.330Z,13.63
2022-10-06T17:40:03.148Z,13.55
2022-10-06T17:45:25.063Z,13.43
2022-10-06T17:50:57.002Z,13.40
2022-10-06T17:56:20.642Z,13.29
2022-10-06T18:01:41.542Z,13.25
2022-10-06T18:07:03.828Z,13.23
2022-10-06T18:12:25.040Z,13.17
2022-10-06T18:17:45.660Z,13.10
2022-10-06T18:23:09.950Z,12.94
2022-10-06T18:28:31.202Z,12.88
2022-10-06T18:39:33.593Z,12.91
2022-10-06T18:45:13.124Z,12.79
2022-10-06T18:50:35.179Z,12.74
2022-10-06T18:55:57.506Z,12.72
2022-10-06T19:01:19.585Z,12.73
2022-10-06T19:06:44.074Z,12.70
2022-10-06T19:12:05.016Z,12.66
2022-10-06T19:17:25.876Z,12.51
2022-10-06T19:22:47.721Z,12.44
2022-10-06T19:28:09.186Z,12.44
2022-10-06T19:33:31.799Z,12.46
2022-10-06T19:38:53.970Z,12.44
2022-10-06T19:44:15.485Z,12.44
2022-10-06T19:49:38.205Z,12.43
2022-10-06T19:54:59.088Z,12.37
2022-10-06T20:00:20.155Z,12.26
2022-10-06T20:05:41.041Z,12.13
2022-10-06T20:11:03.061Z,12.02
2022-10-06T20:16:24.239Z,11.86
2022-10-06T20:21:45.938Z,11.70
2022-10-06T20:27:06.649Z,11.74
2022-10-06T20:32:27.657Z,11.66
2022-10-06T20:37:48.605Z,11.50
2022-10-06T20:43:09.524Z,11.41
2022-10-06T20:48:33.287Z,11.36
2022-10-06T20:53:54.412Z,11.28
2022-10-06T20:59:15.900Z,11.23
2022-10-06T21:04:36.387Z,11.17
2022-10-06T21:09:57.631Z,11.12
2022-10-06T21:15:18.402Z,10.97
2022-10-06T21:20:44.393Z,10.93
2022-10-06T21:26:08.011Z,10.86
2022-10-06T21:31:29.174Z,10.79
2022-10-06T21:36:49.908Z,10.64
2022-10-06T21:42:10.805Z,10.61
2022-10-06T21:47:31.690Z,10.45
2022-10-06T21:52:52.571Z,10.27
2022-10-06T21:58:13.617Z,10.23
